createdAt,value
2022-08-11T00:00:36.623Z,101997.63
2022-08-11T00:03:23.957Z,101996.84
2022-08-11T00:06:34.880Z,101989.84
2022-08-11T00:09:38.908Z,101990.19
2022-08-11T00:12:27.168Z,101995.72
2022-08-11T00:15:14.270Z,101986.78
2022-08-11T00:18:02.264Z,101986.81
2022-08-11T00:20:49.788Z,101997.66
2022-08-11T00:23:43.631Z,102000.22
2022-08-11T00:26:31.520Z,101995.81
2022-08-11T00:29:19.398Z,101997.75
2022-08-11T00:32:08.949Z,101993.69
2022-08-11T00:35:51.648Z,101990.97
2022-08-11T00:38:04.678Z,101999.44
2022-08-11T00:41:00.769Z,101994.34
2022-08-11T00:44:00.898Z,101996.47
2022-08-11T00:47:04.197Z,101994.84
2022-08-11T00:50:03.701Z,101995.03
2022-08-11T00:53:26.536Z,101989.75
2022-08-11T00:56:40.078Z,101997.09
2022-08-11T01:00:15.682Z,101992.75
2022-08-11T01:03:26.235Z,101994.72
2022-08-11T01:06:46.853Z,101999.44
2022-08-11T01:09:48.727Z,102004.19
2022-08-11T01:12:50.952Z,102001.81
2022-08-11T01:16:09.564Z,102000.22
2022-08-11T01:19:31.743Z,102008.19
2022-08-11T01:22:36.868Z,102004.94
2022-08-11T01:25:56.656Z,102003.22
2022-08-11T01:29:21.086Z,102008.72
2022-08-11T01:32:45.944Z,101997.72
2022-08-11T01:35:53.303Z,102001.38
2022-08-11T01:39:18.992Z,101997.09
2022-08-11T01:42:54.966Z,102000.88
2022-08-11T01:45:49.947Z,102002.78
2022-08-11T01:48:43.776Z,101990.94
2022-08-11T01:51:46.959Z,102002.63
2022-08-11T01:54:42.183Z,102000.97
2022-08-11T01:57:38.716Z,101999.28
2022-08-11T02:00:30.891Z,102001.03
2022-08-11T02:03:29.867Z,101995.94
2022-08-11T02:06:48.691Z,102000.56
2022-08-11T02:10:02.334Z,101993.59
2022-08-11T02:12:52.894Z,101984.78
2022-08-11T02:15:46.994Z,101985.81
2022-08-11T02:18:51.760Z,101978.91
2022-08-11T02:22:06.963Z,101985.19
2022-08-11T02:25:03.077Z,101985.28
2022-08-11T02:27:56.622Z,101987.22
2022-08-11T02:32:14.567Z,101980.28
2022-08-11T02:34:37.369Z,101982.13
2022-08-11T02:37:35.846Z,101983.00
2022-08-11T02:40:44.856Z,101980.50
2022-08-11T02:43:48.045Z,101983.38
2022-08-11T02:46:51.358Z,101980.84
2022-08-11T02:50:06.927Z,101979.13
2022-08-11T02:52:59.878Z,101979.31
2022-08-11T02:55:59.039Z,101982.03
2022-08-11T02:59:12.965Z,101975.94
2022-08-11T03:02:05.361Z,101975.09
2022-08-11T03:05:06.847Z,101982.19
2022-08-11T03:08:09.731Z,101969.91
2022-08-11T03:11:23.555Z,101977.78
2022-08-11T03:14:42.305Z,101982.16
2022-08-11T03:17:34.341Z,101983.97
2022-08-11T03:20:38.277Z,101986.84
2022-08-11T03:23:32.201Z,101984.41
2022-08-11T03:26:31.972Z,101980.94
2022-08-11T03:29:29.600Z,101983.69
2022-08-11T03:32:29.237Z,101990.72
2022-08-11T03:35:21.525Z,101993.47
2022-08-11T03:38:13.931Z,101982.88
2022-08-11T03:42:01.128Z,101981.22
2022-08-11T03:45:03.383Z,101986.59
2022-08-11T03:48:02.039Z,101989.22
2022-08-11T03:50:59.061Z,101983.94
2022-08-11T03:53:57.833Z,101988.41
2022-08-11T03:57:31.535Z,101990.25
2022-08-11T04:00:51.959Z,101985.06
2022-08-11T04:04:25.565Z,101993.91
2022-08-11T04:08:02.099Z,101985.88
2022-08-11T04:11:15.509Z,101979.56
2022-08-11T04:14:45.305Z,101977.81
2022-08-11T04:17:54.382Z,101985.69
2022-08-11T04:21:07.202Z,101988.31
2022-08-11T04:24:39.773Z,101990.91
2022-08-11T04:27:48.588Z,101983.66
2022-08-11T04:30:57.339Z,101988.78
2022-08-11T04:34:06.839Z,101995.41
2022-08-11T04:37:34.635Z,101994.66
2022-08-11T04:40:50.839Z,101992.22
2022-08-11T04:44:16.696Z,101994.25
2022-08-11T04:48:03.474Z,101994.69
2022-08-11T04:51:26.189Z,101992.22
2022-08-11T04:54:45.919Z,101992.06
2022-08-11T04:57:59.959Z,101987.22
2022-08-11T05:01:15.510Z,101996.78
2022-08-11T05:04:40.139Z,101991.22
2022-08-11T05:08:06.080Z,101993.78
2022-08-11T05:11:08.310Z,101983.84
2022-08-11T05:14:40.115Z,101995.25
2022-08-11T05:17:55.254Z,101991.81
2022-08-11T05:21:09.378Z,101997.59
2022-08-11T05:24:30.472Z,101997.19
2022-08-11T05:27:38.601Z,102002.31
2022-08-11T05:30:47.752Z,101995.41
2022-08-11T05:34:04.104Z,102005.50
2022-08-11T05:37:11.591Z,102000.59
2022-08-11T05:40:28.005Z,102006.88
2022-08-11T05:43:34.354Z,102006.28
2022-08-11T05:46:40.105Z,102011.88
2022-08-11T05:49:49.734Z,102001.31
2022-08-11T05:52:57.499Z,101995.50
2022-08-11T05:56:04.400Z,102003.22
2022-08-11T05:58:52.996Z,101978.22
2022-08-11T06:01:40.477Z,101998.50
2022-08-11T06:04:30.871Z,101996.88
2022-08-11T06:07:18.033Z,101999.09
2022-08-11T06:10:05.434Z,102005.66
2022-08-11T06:12:55.952Z,102003.38
2022-08-11T06:15:47.450Z,102004.53
2022-08-11T06:18:35.152Z,102002.56
2022-08-11T06:21:23.277Z,102013.16
2022-08-11T06:24:13.697Z,102004.84
2022-08-11T06:27:12.178Z,102010.44
2022-08-11T06:30:03.234Z,102005.91
2022-08-11T06:32:55.573Z,102011.78
2022-08-11T06:35:52.854Z,102009.22
2022-08-11T06:38:57.979Z,102005.38
2022-08-11T06:41:50.766Z,102006.72
2022-08-11T06:44:43.297Z,102005.47
2022-08-11T06:47:31.593Z,102003.44
2022-08-11T06:50:37.517Z,102002.44
2022-08-11T06:53:24.699Z,102003.00
2022-08-11T06:56:30.355Z,102003.41
2022-08-11T06:59:36.621Z,102003.81
2022-08-11T07:02:33.879Z,102002.28
2022-08-11T07:05:28.788Z,101996.94
2022-08-11T07:09:04.823Z,101996.69
2022-08-11T07:12:26.786Z,101982.53
2022-08-11T07:16:10.693Z,101991.09
2022-08-11T07:18:57.693Z,101991.00
2022-08-11T07:22:05.744Z,101990.16
2022-08-11T07:25:16.108Z,101997.88
2022-08-11T07:28:22.709Z,101996.47
2022-08-11T07:31:17.046Z,101985.03
2022-08-11T07:34:17.591Z,101986.25
2022-08-11T07:37:12.739Z,101980.47
2022-08-11T07:40:01.792Z,101974.84
2022-08-11T07:42:49.223Z,101974.91
2022-08-11T07:45:53.919Z,101978.94
2022-08-11T07:49:01.074Z,101975.38
2022-08-11T07:52:07.397Z,101972.56
2022-08-11T07:54:57.345Z,101974.22
2022-08-11T07:58:16.371Z,101974.56
2022-08-11T08:01:25.282Z,101969.47
2022-08-11T08:04:33.636Z,101969.56
2022-08-11T08:07:40.221Z,101983.34
2022-08-11T08:10:47.426Z,101972.88
2022-08-11T08:13:54.234Z,101975.69
2022-08-11T08:17:01.228Z,101974.19
2022-08-11T08:19:51.104Z,101972.66
2022-08-11T08:22:43.885Z,101960.75
2022-08-11T08:25:38.539Z,101971.13
2022-08-11T08:28:30.300Z,101964.50
2022-08-11T08:31:20.404Z,101964.25
2022-08-11T08:34:08.705Z,101959.47
2022-08-11T08:36:57.245Z,101961.66
2022-08-11T08:39:48.263Z,101962.69
2022-08-11T08:42:45.282Z,101954.66
2022-08-11T08:45:37.835Z,101956.81
2022-08-11T08:48:28.592Z,101953.44
2022-08-11T08:52:01.121Z,101956.78
2022-08-11T08:54:44.951Z,101954.34
2022-08-11T08:57:39.462Z,101950.69
2022-08-11T09:00:40.841Z,101954.78
2022-08-11T09:04:05.217Z,101947.63
2022-08-11T09:06:35.749Z,101937.84
2022-08-11T09:09:23.429Z,101938.59
2022-08-11T09:12:11.680Z,101939.47
2022-08-11T09:15:03.710Z,101943.91
2022-08-11T09:18:03.758Z,101939.94
2022-08-11T09:20:50.727Z,101940.38
2022-08-11T09:24:07.808Z,101938.91
2022-08-11T09:27:03.060Z,101936.19
2022-08-11T09:29:50.350Z,101939.34
2022-08-11T09:32:37.620Z,101939.00
2022-08-11T09:35:27.042Z,101928.38
2022-08-11T09:38:33.495Z,101926.13
2022-08-11T09:41:20.364Z,101926.91
2022-08-11T09:44:30.669Z,101928.16
2022-08-11T09:47:25.415Z,101915.19
2022-08-11T09:50:13.624Z,101916.88
2022-08-11T09:53:35.923Z,101909.06
2022-08-11T09:56:34.429Z,101919.63
2022-08-11T09:59:24.142Z,101920.09
2022-08-11T10:02:12.081Z,101918.63
2022-08-11T10:05:20.620Z,101913.78
2022-08-11T10:08:12.022Z,101902.53
2022-08-11T10:11:01.093Z,101897.09
2022-08-11T10:14:32.105Z,101897.69
2022-08-11T10:17:14.502Z,101894.72
2022-08-11T10:20:05.874Z,101895.28
2022-08-11T10:23:10.871Z,101897.59
2022-08-11T10:26:17.160Z,101882.66
2022-08-11T10:29:26.749Z,101890.97
2022-08-11T10:32:57.706Z,101886.50
2022-08-11T10:35:46.825Z,101890.16
2022-08-11T10:38:34.212Z,101879.22
2022-08-11T10:42:01.836Z,101875.03
2022-08-11T10:44:49.237Z,101870.31
2022-08-11T10:47:35.028Z,101877.34
2022-08-11T10:50:39.703Z,101877.06
2022-08-11T10:53:44.173Z,101866.06
2022-08-11T10:56:54.582Z,101864.81
2022-08-11T10:59:42.923Z,101867.50
2022-08-11T11:02:30.726Z,101868.81
2022-08-11T11:05:26.071Z,101863.19
2022-08-11T11:08:29.395Z,101867.94
2022-08-11T11:11:19.322Z,101862.56
2022-08-11T11:14:46.756Z,101858.38
2022-08-11T11:18:01.676Z,101852.59
2022-08-11T11:20:53.161Z,101845.03
2022-08-11T11:23:47.603Z,101846.06
2022-08-11T11:26:44.576Z,101845.16
2022-08-11T11:29:54.749Z,101839.69
2022-08-11T11:32:50.046Z,101840.47
2022-08-11T11:35:54.026Z,101846.41
2022-08-11T11:38:42.419Z,101842.94
2022-08-11T11:41:30.133Z,101843.41
2022-08-11T11:44:17.182Z,101836.91
2022-08-11T11:47:07.541Z,101845.91
2022-08-11T11:49:54.728Z,101844.38
2022-08-11T11:52:42.294Z,101838.72
2022-08-11T11:55:30.692Z,101836.41
2022-08-11T11:58:36.784Z,101823.56
2022-08-11T12:01:25.718Z,101821.63
2022-08-11T12:04:16.565Z,101828.16
2022-08-11T12:07:17.840Z,101822.63
2022-08-11T12:10:09.829Z,101820.94
2022-08-11T12:13:17.301Z,101823.38
2022-08-11T12:16:33.300Z,101812.16
2022-08-11T12:19:16.581Z,101812.16
2022-08-11T12:22:20.969Z,101806.38
2022-08-11T12:25:37.968Z,101804.94
2022-08-11T12:28:25.494Z,101803.72
2022-08-11T12:31:16.184Z,101808.19
2022-08-11T12:34:04.317Z,101798.59
2022-08-11T12:36:56.320Z,101796.91
2022-08-11T12:40:12.930Z,101791.00
2022-08-11T12:43:37.986Z,101795.16
2022-08-11T12:46:32.823Z,101788.56
2022-08-11T12:49:45.220Z,101787.13
2022-08-11T12:52:36.995Z,101787.72
2022-08-11T12:55:40.361Z,101783.84
2022-08-11T12:58:28.953Z,101774.22
2022-08-11T13:01:33.577Z,101766.34
2022-08-11T13:04:38.226Z,101769.34
2022-08-11T13:07:26.576Z,101760.16
2022-08-11T13:10:52.817Z,101754.13
2022-08-11T13:13:54.214Z,101757.84
2022-08-11T13:17:18.105Z,101752.38
2022-08-11T13:20:06.407Z,101747.53
2022-08-11T13:22:55.603Z,101753.41
2022-08-11T13:25:44.411Z,101753.38
2022-08-11T13:28:34.416Z,101742.94
2022-08-11T13:31:21.753Z,101746.53
2022-08-11T13:34:09.399Z,101749.09
2022-08-11T13:37:00.521Z,101755.25
2022-08-11T13:39:48.168Z,101745.78
2022-08-11T13:42:37.601Z,101748.09
2022-08-11T13:45:25.653Z,101733.59
2022-08-11T13:48:13.920Z,101732.91
2022-08-11T13:51:17.990Z,101742.09
2022-08-11T13:54:07.643Z,101734.47
2022-08-11T13:56:58.220Z,101733.75
2022-08-11T13:59:52.510Z,101738.63
2022-08-11T14:02:43.538Z,101736.63
2022-08-11T14:05:35.488Z,101725.84
2022-08-11T14:08:38.466Z,101728.00
2022-08-11T14:12:23.262Z,101716.53
2022-08-11T14:15:07.622Z,101721.41
2022-08-11T14:18:01.813Z,101713.78
2022-08-11T14:21:10.955Z,101709.06
2022-08-11T14:24:01.257Z,101705.59
2022-08-11T14:26:49.295Z,101706.63
2022-08-11T14:29:45.203Z,101696.72
2022-08-11T14:32:52.732Z,101695.00
2022-08-11T14:35:40.056Z,101704.19
2022-08-11T14:38:31.531Z,101688.38
2022-08-11T14:41:37.251Z,101687.78
2022-08-11T14:45:04.048Z,101686.94
2022-08-11T14:47:59.979Z,101681.31
2022-08-11T14:50:49.109Z,101679.50
2022-08-11T14:53:41.371Z,101693.28
2022-08-11T14:56:46.389Z,101688.25
2022-08-11T14:59:35.138Z,101673.19
2022-08-11T15:02:40.606Z,101681.22
2022-08-11T15:05:30.827Z,101675.38
2022-08-11T15:08:28.227Z,101680.81
2022-08-11T15:11:41.500Z,101671.50
2022-08-11T15:14:58.258Z,101673.50
2022-08-11T15:17:48.756Z,101670.16
2022-08-11T15:20:56.039Z,101664.59
2022-08-11T15:24:00.693Z,101666.31
2022-08-11T15:27:07.811Z,101660.44
2022-08-11T15:30:32.557Z,101657.97
2022-08-11T15:33:39.642Z,101655.41
2022-08-11T15:36:47.781Z,101654.69
2022-08-11T15:40:02.503Z,101653.69
2022-08-11T15:43:15.857Z,101661.84
2022-08-11T15:46:08.328Z,101646.97
2022-08-11T15:49:00.577Z,101653.38
2022-08-11T15:52:00.340Z,101644.66
2022-08-11T15:54:50.274Z,101646.53
2022-08-11T15:58:02.016Z,101619.84
2022-08-11T16:01:09.478Z,101647.50
2022-08-11T16:04:13.901Z,101635.63
2022-08-11T16:07:06.589Z,101645.38
2022-08-11T16:10:00.463Z,101636.38
2022-08-11T16:13:22.590Z,101635.63
2022-08-11T16:16:15.558Z,101632.59
2022-08-11T16:19:04.964Z,101641.34
2022-08-11T16:21:54.332Z,101641.78
2022-08-11T16:27:05.339Z,101639.38
2022-08-11T16:28:00.459Z,101635.09
2022-08-11T16:30:50.457Z,101630.78
2022-08-11T16:33:49.765Z,101626.88
2022-08-11T16:36:55.300Z,101627.84
2022-08-11T16:39:44.596Z,101625.69
2022-08-11T16:43:04.401Z,101632.94
2022-08-11T16:46:16.839Z,101638.97
2022-08-11T16:49:07.387Z,101634.09
2022-08-11T16:51:54.189Z,101629.22
2022-08-11T16:54:44.527Z,101622.66
2022-08-11T16:57:51.601Z,101634.53
2022-08-11T17:00:41.521Z,101634.09
2022-08-11T17:03:45.471Z,101639.47
2022-08-11T17:06:51.838Z,101636.56
2022-08-11T17:09:57.093Z,101634.56
2022-08-11T17:13:07.620Z,101634.81
2022-08-11T17:16:12.269Z,101630.81
2022-08-11T17:19:02.498Z,101626.50
2022-08-11T17:22:14.090Z,101612.41
2022-08-11T17:25:02.464Z,101628.63
2022-08-11T17:27:53.702Z,101631.66
2022-08-11T17:31:01.481Z,101627.47
2022-08-11T17:34:19.352Z,101624.38
2022-08-11T17:37:06.308Z,101623.41
2022-08-11T17:39:54.986Z,101625.59
2022-08-11T17:43:02.390Z,101632.75
2022-08-11T17:46:08.437Z,101628.56
2022-08-11T17:48:55.493Z,101628.72
2022-08-11T17:52:03.332Z,101629.78
2022-08-11T17:55:10.572Z,101626.47
2022-08-11T17:58:19.616Z,101624.25
2022-08-11T18:01:10.061Z,101632.88
2022-08-11T18:03:58.811Z,101636.38
2022-08-11T18:06:48.267Z,101642.69
2022-08-11T18:09:52.852Z,101639.28
2022-08-11T18:12:57.569Z,101644.59
2022-08-11T18:16:02.745Z,101653.56
2022-08-11T18:19:09.775Z,101652.84
2022-08-11T18:22:22.559Z,101652.31
2022-08-11T18:25:31.963Z,101647.03
2022-08-11T18:28:42.203Z,101654.47
2022-08-11T18:31:47.693Z,101658.06
2022-08-11T18:34:59.020Z,101658.34
2022-08-11T18:38:07.468Z,101660.94
2022-08-11T18:41:12.560Z,101666.31
2022-08-11T18:44:24.497Z,101651.84
2022-08-11T18:47:31.544Z,101671.88
2022-08-11T18:50:39.941Z,101674.47
2022-08-11T18:53:47.883Z,101671.59
2022-08-11T18:56:53.531Z,101678.44
2022-08-11T19:00:00.633Z,101678.28
2022-08-11T19:03:06.864Z,101687.16
2022-08-11T19:06:38.234Z,101689.38
2022-08-11T19:09:39.297Z,101684.56
2022-08-11T19:12:47.255Z,101685.31
2022-08-11T19:15:54.360Z,101687.91
2022-08-11T19:19:00.361Z,101682.72
2022-08-11T19:22:07.602Z,101696.75
2022-08-11T19:25:14.291Z,101693.13
2022-08-11T19:28:20.323Z,101691.69
2022-08-11T19:31:27.573Z,101694.06
2022-08-11T19:34:34.798Z,101693.00
2022-08-11T19:37:44.441Z,101697.13
2022-08-11T19:40:49.624Z,101696.69
2022-08-11T19:43:56.777Z,101692.72
2022-08-11T19:47:02.672Z,101691.53
2022-08-11T19:50:13.141Z,101685.59
2022-08-11T19:53:19.279Z,101692.47
2022-08-11T19:56:24.953Z,101687.63
2022-08-11T19:59:30.309Z,101694.47
2022-08-11T20:02:35.588Z,101693.69
2022-08-11T20:05:40.416Z,101712.25
2022-08-11T20:09:07.826Z,101702.13
2022-08-11T20:12:15.264Z,101710.78
2022-08-11T20:15:22.506Z,101714.75
2022-08-11T20:18:29.657Z,101704.34
2022-08-11T20:21:34.907Z,101705.63
2022-08-11T20:24:41.712Z,101713.91
2022-08-11T20:27:46.252Z,101711.53
2022-08-11T20:30:51.853Z,101713.28
2022-08-11T20:33:58.576Z,101710.34
2022-08-11T20:37:05.152Z,101712.94
2022-08-11T20:40:13.213Z,101713.19
2022-08-11T20:44:07.533Z,101717.16
2022-08-11T20:46:44.319Z,101720.72
2022-08-11T20:49:56.665Z,101728.47
2022-08-11T20:53:02.544Z,101725.41
2022-08-11T20:56:09.916Z,101728.56
2022-08-11T20:59:18.929Z,101727.41
2022-08-11T21:02:29.948Z,101731.66
2022-08-11T21:06:09.032Z,101727.41
2022-08-11T21:09:01.591Z,101732.38
2022-08-11T21:12:09.741Z,101728.16
2022-08-11T21:15:30.796Z,101733.16
2022-08-11T21:18:46.691Z,101737.88
2022-08-11T21:21:52.360Z,101738.19
2022-08-11T21:24:59.363Z,101740.22
2022-08-11T21:28:08.563Z,101746.75
2022-08-11T21:31:14.677Z,101743.44
2022-08-11T21:34:20.327Z,101749.19
2022-08-11T21:37:26.455Z,101751.16
2022-08-11T21:40:33.423Z,101755.56
2022-08-11T21:43:40.422Z,101753.97
2022-08-11T21:46:47.272Z,101745.56
2022-08-11T21:49:54.057Z,101747.53
2022-08-11T21:53:00.403Z,101749.56
2022-08-11T21:56:05.508Z,101757.94
2022-08-11T21:59:23.410Z,101746.63
2022-08-11T22:02:29.173Z,101748.59
2022-08-11T22:05:34.996Z,101731.38
2022-08-11T22:08:39.231Z,101742.81
2022-08-11T22:11:47.221Z,101736.72
2022-08-11T22:14:55.720Z,101741.28
2022-08-11T22:18:01.185Z,101729.25
2022-08-11T22:21:07.277Z,101740.31
2022-08-11T22:24:12.440Z,101736.97
2022-08-11T22:27:24.430Z,101740.81
2022-08-11T22:30:31.160Z,101739.28
2022-08-11T22:33:42.071Z,101737.66
2022-08-11T22:37:07.143Z,101736.94
2022-08-11T22:40:13.213Z,101726.56
2022-08-11T22:43:18.047Z,101733.97
2022-08-11T22:46:25.025Z,101733.31
2022-08-11T22:49:31.088Z,101727.03
2022-08-11T22:52:55.932Z,101735.50
2022-08-11T22:56:00.036Z,101734.16
2022-08-11T22:59:06.323Z,101744.38
2022-08-11T23:02:12.787Z,101745.59
2022-08-11T23:05:18.518Z,101749.25
2022-08-11T23:08:24.352Z,101747.69
2022-08-11T23:11:33.115Z,101745.38
2022-08-11T23:14:55.264Z,101750.22
2022-08-11T23:18:01.560Z,101746.03
2022-08-11T23:21:07.720Z,101755.47
2022-08-11T23:24:12.523Z,101754.09
2022-08-11T23:27:18.840Z,101756.13
2022-08-11T23:30:24.683Z,101754.97
2022-08-11T23:33:34.929Z,101748.47
2022-08-11T23:36:47.386Z,101752.88
2022-08-11T23:39:52.088Z,101749.00
2022-08-11T23:42:56.822Z,101748.25
2022-08-11T23:46:01.372Z,101723.97
2022-08-11T23:49:11.996Z,101754.03
2022-08-11T23:52:18.223Z,101756.97
2022-08-11T23:55:23.042Z,101741.78
2022-08-11T23:58:28.281Z,101753.16
